Urban Trail de Montpellier - 13/05/2016

Course indiv. 16 Km

405 participants classés


Retour au Sommaire - Signaler une erreur - Faire défiler





1 2 3 4 5 6 7 8 9 /fin /tout

page suivante ->

Pl Do. Nom - Surname Prénom - Name S-Cat /cat Club - Team TEMPS - Time Km/h /sx
1 433 LABADENS CÉDRIC MSE 1 L'aventure Peugeot 00:58:55 16,3 1
2 302 MARTIN SACHA MES 1   00:59:26 16,1 2
3 145 MARTIN FRÉDÉRIC MSE 2   01:01:28 15,6 3
4 354 BELLIER BRUNO MV1 1 RUN IN CRES 01:03:09 15,2 4
5 118 BELLAÏLA ARNAUD MSE 3 NIGHT RUN MONTPELLIER 01:03:10 15,2 5
6 402 ROBERT MERILE MV1 2 USSA SETE 01:03:13 15,2 6
7 152 BESSET PATRICK MSE 4 ASPH TRIATHLON 01:03:29 15,1 7
8 34 BOYER THIERRY MV1 3 MAUGUIO CARNON TRIATHLON 01:03:39 15,1 8
9 405 BELAZZOUG FARID MV1 4   01:04:44 14,8 9
10 265 AGEORGES GREGORY MV1 5   01:05:18 14,7 10
11 250 MONIER CHRISTELLE FV1 1 ACNM - NARBONNE 01:05:28 14,7 1
12 153 ROMAN VINCENT MSE 5 Team Pharma Escarène 01:05:54 14,6 11
13 167 VALLEJO CEDRIC MSE 6 ASPH TRIATHLON 01:05:55 14,6 12
14 316 MICHEL ADRIEN MSE 7   01:06:10 14,5 13
15 445 PUJOS CEDRIC MSE 8 Pujos 01:06:33 14,4 14
16 451 KERDELLANT ELVEN MSE 9 EBCL 01:06:47 14,4 15
17 317 GILLMANN FABRICE MSE 10   01:07:30 14,2 16
18 398 LEVACHER ERIC MV1 6 USSA SETE 01:07:43 14,2 17
19 308 COUTELET GILLES MSE 11 CASTRIES RUNNING CLUB 01:07:45 14,2 18
20 461 VILLENA ERIC MV1 7 LATITUDE RACE 01:08:06 14,1 19
21 181 DALLIER PATRICK MV2 1 M2AM 01:08:16 14,1 20
22 276 WINTER GREGORY MV1 8   01:08:18 14,1 21
23 223 REYT BENJAMIN MSE 12   01:08:19 14,1 22
24 47 BORDONE ANDREA MSE 13   01:08:26 14,0 23
25 103 ADER DELPHINE FSE 1 TARBES PYRENEES ATHLETISMES 01:08:50 13,9 2
26 438 CASAL FRANCK MSE 14 Canillo 01:09:19 13,8 24
27 260 PENLAË YANNICK MSE 15   01:09:21 13,8 25
28 401 GRAPILLARD THOMAS MSE 16   01:09:26 13,8 26
29 455 ROMERO FREDERIC MSE 17 AQUALOVE 01:10:51 13,5 27
30 155 PASQUALINI BRUNO MV1 9 MAT 01:11:02 13,5 28
31 164 BESSOUD FREDERIC MSE 18 NL 01:11:27 13,4 29
32 111 GIL FRÉDÉRIC MV2 2 PEROLS FOOTING 01:11:31 13,4 30
33 159 FLORENT LEVEQUE MSE 19 S-TRAINER 01:11:47 13,4 31
34 49 SANABRÉ JEAN-MARC MV2 3 CALC MONTPELLIER 01:12:13 13,3 32
35 11 ACADINE JEAN LUDERCE MV1 10   01:12:20 13,3 33
36 468 DOSSARD 468 MSE 20   01:12:27 13,2 34
37 14 BOUCHER MICKAEL MSE 21   01:13:21 13,1 35
38 141 DOUZIECH SYLVAIN MSE 22   01:13:32 13,1 36
39 197 CARON CLÉMENT MSE 23   01:13:46 13,0 37
40 385 SAFI ABDELKADER MV1 11   01:13:50 13,0 38
41 184 NOGARET VINCENT MSE 24   01:14:03 13,0 39
42 293 GAUTIER JEROME MV1 12   01:14:07 13,0 40
43 287 ABRAMOVICI LAURENT MSE 25   01:14:09 12,9 41
44 409 LOUET ELIE MSE 26   01:14:20 12,9 42
45 392 STRUNA HUGO MSE 27   01:14:21 12,9 43
46 25 ACHARD MATHIEU MSE 28   01:14:22 12,9 44
47 20 GIRAUD PIERRE MV1 13   01:14:24 12,9 45
48 452 GINGAND DAMIEN MSE 29   01:14:34 12,9 46
49 336 ORLOWSKI DARIUSZ MSE 30   01:14:48 12,8 47
50 454 SEBASTIEN HERVE MSE 31   01:14:49 12,8 48
ANTHONY a commenté - 14/05/2016 à 14:44 signaler abus
2 éme édition , et malgré le mauvais temps et un parcours légèrement modifié, toujours un plaisir d'arpenter les rues de Montpellier en nocturne avec la bonne ambiance. a l'année prochaine pour faire encore mieux

Déjà membre? Identifiez-vous pour commenter l'épreuve ou créer un compte